sensor_id;sensor_type;location;lat;lon;timestamp;pressure;altitude;pressure_sealevel;temperature;humidity
77867;BME280;67271;59.120;37.970;2023-09-19T00:05:07;100713.28;;;10.05;69.43
77867;BME280;67271;59.120;37.970;2023-09-19T00:07:34;100710.19;;;10.08;68.96
77867;BME280;67271;59.120;37.970;2023-09-19T00:10:02;100709.19;;;10.09;69.26
77867;BME280;67271;59.120;37.970;2023-09-19T00:12:28;100705.44;;;10.10;69.23
77867;BME280;67271;59.120;37.970;2023-09-19T00:14:54;100704.59;;;10.10;69.14
77867;BME280;67271;59.120;37.970;2023-09-19T00:17:22;100701.91;;;10.10;68.86
77867;BME280;67271;59.120;37.970;2023-09-19T00:19:48;100700.38;;;10.07;69.06
77867;BME280;67271;59.120;37.970;2023-09-19T00:22:14;100694.16;;;10.07;68.90
77867;BME280;67271;59.120;37.970;2023-09-19T00:24:41;100692.94;;;10.09;68.62
77867;BME280;67271;59.120;37.970;2023-09-19T00:27:08;100687.38;;;10.11;68.40
77867;BME280;67271;59.120;37.970;2023-09-19T00:29:34;100686.34;;;10.12;68.20
77867;BME280;67271;59.120;37.970;2023-09-19T00:31:59;100679.25;;;10.11;68.23
77867;BME280;67271;59.120;37.970;2023-09-19T00:34:26;100679.44;;;10.09;68.55
77867;BME280;67271;59.120;37.970;2023-09-19T00:36:52;100681.47;;;10.07;68.46
77867;BME280;67271;59.120;37.970;2023-09-19T00:39:19;100679.97;;;10.05;68.69
77867;BME280;67271;59.120;37.970;2023-09-19T00:41:46;100676.25;;;10.06;68.38
77867;BME280;67271;59.120;37.970;2023-09-19T00:44:11;100680.66;;;10.07;68.16
77867;BME280;67271;59.120;37.970;2023-09-19T00:46:40;100675.25;;;10.07;67.95
77867;BME280;67271;59.120;37.970;2023-09-19T00:49:07;100681.13;;;10.10;68.00
77867;BME280;67271;59.120;37.970;2023-09-19T00:51:35;100683.66;;;10.12;67.98
77867;BME280;67271;59.120;37.970;2023-09-19T00:54:02;100683.66;;;10.12;67.88
77867;BME280;67271;59.120;37.970;2023-09-19T00:56:29;100689.72;;;10.14;68.06
77867;BME280;67271;59.120;37.970;2023-09-19T00:58:55;100688.03;;;10.13;68.06
77867;BME280;67271;59.120;37.970;2023-09-19T01:01:21;100686.53;;;10.10;68.40
77867;BME280;67271;59.120;37.970;2023-09-19T01:03:47;100686.06;;;10.07;68.13
77867;BME280;67271;59.120;37.970;2023-09-19T01:06:13;100687.25;;;10.04;68.46
77867;BME280;67271;59.120;37.970;2023-09-19T01:08:39;100689.28;;;10.02;68.53
77867;BME280;67271;59.120;37.970;2023-09-19T01:11:21;100688.28;;;10.03;68.57
77867;BME280;67271;59.120;37.970;2023-09-19T01:14:11;100675.59;;;10.04;68.56
77867;BME280;67271;59.120;37.970;2023-09-19T01:16:50;100669.16;;;10.05;68.71
77867;BME280;67271;59.120;37.970;2023-09-19T01:30:10;100666.22;;;9.92;69.10
77867;BME280;67271;59.120;37.970;2023-09-19T01:32:42;100668.25;;;9.90;69.15
77867;BME280;67271;59.120;37.970;2023-09-19T01:35:09;100666.56;;;9.89;69.58
77867;BME280;67271;59.120;37.970;2023-09-19T01:37:38;100655.25;;;9.85;69.53
77867;BME280;67271;59.120;37.970;2023-09-19T01:40:09;100656.66;;;9.81;69.93
77867;BME280;67271;59.120;37.970;2023-09-19T01:43:09;100650.75;;;9.78;70.15
77867;BME280;67271;59.120;37.970;2023-09-19T01:48:35;100649.63;;;9.72;70.45
77867;BME280;67271;59.120;37.970;2023-09-19T01:51:07;100649.78;;;9.70;70.69
77867;BME280;67271;59.120;37.970;2023-09-19T01:53:56;100650.34;;;9.66;70.50
77867;BME280;67271;59.120;37.970;2023-09-19T01:56:40;100641.72;;;9.62;70.76
77867;BME280;67271;59.120;37.970;2023-09-19T01:59:13;100645.53;;;9.53;71.26
77867;BME280;67271;59.120;37.970;2023-09-19T02:01:40;100641.19;;;9.44;71.44
77867;BME280;67271;59.120;37.970;2023-09-19T02:04:07;100637.63;;;9.44;71.46
77867;BME280;67271;59.120;37.970;2023-09-19T02:06:33;100639.31;;;9.45;71.36
77867;BME280;67271;59.120;37.970;2023-09-19T02:09:02;100627.50;;;9.46;71.70
77867;BME280;67271;59.120;37.970;2023-09-19T02:11:29;100638.09;;;9.47;71.42
77867;BME280;67271;59.120;37.970;2023-09-19T02:13:57;100634.22;;;9.50;71.33
77867;BME280;67271;59.120;37.970;2023-09-19T02:16:25;100632.53;;;9.49;71.78
77867;BME280;67271;59.120;37.970;2023-09-19T02:18:51;100634.59;;;9.47;71.75
77867;BME280;67271;59.120;37.970;2023-09-19T02:21:18;100629.34;;;9.45;71.71
77867;BME280;67271;59.120;37.970;2023-09-19T02:23:45;100627.00;;;9.42;71.99
77867;BME280;67271;59.120;37.970;2023-09-19T02:26:13;100623.63;;;9.40;72.21
77867;BME280;67271;59.120;37.970;2023-09-19T02:28:40;100627.16;;;9.41;72.29
77867;BME280;67271;59.120;37.970;2023-09-19T02:31:08;100617.22;;;9.41;72.27
77867;BME280;67271;59.120;37.970;2023-09-19T02:33:34;100609.09;;;9.41;71.85
77867;BME280;67271;59.120;37.970;2023-09-19T02:36:01;100616.56;;;9.39;72.29
77867;BME280;67271;59.120;37.970;2023-09-19T02:38:29;100613.19;;;9.37;72.18
77867;BME280;67271;59.120;37.970;2023-09-19T02:40:55;100618.59;;;9.37;72.28
77867;BME280;67271;59.120;37.970;2023-09-19T02:43:22;100609.34;;;9.31;72.44
77867;BME280;67271;59.120;37.970;2023-09-19T02:45:49;100612.22;;;9.30;72.79
77867;BME280;67271;59.120;37.970;2023-09-19T02:48:16;100607.16;;;9.27;72.75
77867;BME280;67271;59.120;37.970;2023-09-19T02:50:43;100609.69;;;9.28;73.14
77867;BME280;67271;59.120;37.970;2023-09-19T02:53:10;100608.00;;;9.27;73.20
77867;BME280;67271;59.120;37.970;2023-09-19T02:55:38;100611.09;;;9.24;73.34
77867;BME280;67271;59.120;37.970;2023-09-19T02:58:06;100610.56;;;9.21;73.23
77867;BME280;67271;59.120;37.970;2023-09-19T03:00:37;100606.56;;;9.17;73.43
77867;BME280;67271;59.120;37.970;2023-09-19T03:03:04;100612.31;;;9.14;73.11
77867;BME280;67271;59.120;37.970;2023-09-19T03:05:32;100619.06;;;9.10;73.34
77867;BME280;67271;59.120;37.970;2023-09-19T03:07:58;100614.00;;;9.15;73.23
77867;BME280;67271;59.120;37.970;2023-09-19T03:10:29;100606.03;;;9.21;73.46
77867;BME280;67271;59.120;37.970;2023-09-19T03:12:57;100610.38;;;9.30;73.24
77867;BME280;67271;59.120;37.970;2023-09-19T03:15:25;100607.78;;;9.37;73.15
77867;BME280;67271;59.120;37.970;2023-09-19T03:17:52;100611.81;;;9.41;72.73
77867;BME280;67271;59.120;37.970;2023-09-19T03:20:21;100612.19;;;9.38;72.81
77867;BME280;67271;59.120;37.970;2023-09-19T03:22:58;100617.88;;;9.43;72.78
77867;BME280;67271;59.120;37.970;2023-09-19T03:25:27;100615.84;;;9.45;72.85
77867;BME280;67271;59.120;37.970;2023-09-19T03:27:56;100624.09;;;9.52;72.55
77867;BME280;67271;59.120;37.970;2023-09-19T03:30:24;100616.28;;;9.57;72.67
77867;BME280;67271;59.120;37.970;2023-09-19T03:32:50;100610.34;;;9.61;72.23
77867;BME280;67271;59.120;37.970;2023-09-19T03:35:17;100611.50;;;9.67;72.22
77867;BME280;67271;59.120;37.970;2023-09-19T03:37:46;100601.66;;;9.74;72.20
77867;BME280;67271;59.120;37.970;2023-09-19T03:40:13;100602.09;;;9.78;72.08
77867;BME280;67271;59.120;37.970;2023-09-19T03:42:40;100604.97;;;9.84;72.41
77867;BME280;67271;59.120;37.970;2023-09-19T03:45:08;100599.94;;;9.96;72.05
77867;BME280;67271;59.120;37.970;2023-09-19T03:47:40;100610.53;;;10.05;71.53
77867;BME280;67271;59.120;37.970;2023-09-19T03:50:08;100597.56;;;10.16;71.77
77867;BME280;67271;59.120;37.970;2023-09-19T03:52:36;100590.91;;;10.26;71.42
77867;BME280;67271;59.120;37.970;2023-09-19T03:55:02;100587.78;;;10.37;71.55
77867;BME280;67271;59.120;37.970;2023-09-19T03:57:30;100589.00;;;10.50;71.27
77867;BME280;67271;59.120;37.970;2023-09-19T03:59:55;100590.78;;;10.57;70.92
77867;BME280;67271;59.120;37.970;2023-09-19T04:02:22;100587.16;;;10.65;70.85
77867;BME280;67271;59.120;37.970;2023-09-19T04:04:49;100574.28;;;10.67;70.81
77867;BME280;67271;59.120;37.970;2023-09-19T04:07:16;100583.03;;;10.69;71.19
77867;BME280;67271;59.120;37.970;2023-09-19T04:09:42;100580.03;;;10.78;71.00
77867;BME280;67271;59.120;37.970;2023-09-19T04:12:08;100577.91;;;10.89;70.69
77867;BME280;67271;59.120;37.970;2023-09-19T04:14:37;100581.34;;;10.97;70.56
77867;BME280;67271;59.120;37.970;2023-09-19T04:17:03;100580.50;;;11.11;70.14
77867;BME280;67271;59.120;37.970;2023-09-19T04:19:31;100584.13;;;11.18;70.11
77867;BME280;67271;59.120;37.970;2023-09-19T04:21:57;100576.25;;;11.23;70.37
77867;BME280;67271;59.120;37.970;2023-09-19T04:24:23;100582.22;;;11.34;69.89
77867;BME280;67271;59.120;37.970;2023-09-19T04:26:48;100576.41;;;11.37;70.15
77867;BME280;67271;59.120;37.970;2023-09-19T04:29:14;100576.56;;;11.35;70.36
77867;BME280;67271;59.120;37.970;2023-09-19T04:31:41;100580.28;;;11.28;70.78
77867;BME280;67271;59.120;37.970;2023-09-19T04:34:09;100577.34;;;11.29;71.08
77867;BME280;67271;59.120;37.970;2023-09-19T04:36:35;100573.31;;;11.40;71.07
77867;BME280;67271;59.120;37.970;2023-09-19T04:39:03;100577.22;;;11.37;71.09
77867;BME280;67271;59.120;37.970;2023-09-19T04:41:33;100585.47;;;11.29;71.63
77867;BME280;67271;59.120;37.970;2023-09-19T04:44:00;100586.66;;;11.20;72.01
77867;BME280;67271;59.120;37.970;2023-09-19T04:46:38;100583.59;;;11.30;72.05
77867;BME280;67271;59.120;37.970;2023-09-19T04:49:04;100583.69;;;11.36;71.78
77867;BME280;67271;59.120;37.970;2023-09-19T04:51:30;100574.88;;;11.49;71.37
77867;BME280;67271;59.120;37.970;2023-09-19T04:54:00;100582.63;;;11.73;71.09
77867;BME280;67271;59.120;37.970;2023-09-19T04:56:26;100583.31;;;11.75;70.97
77867;BME280;67271;59.120;37.970;2023-09-19T04:58:54;100582.81;;;11.86;71.03
77867;BME280;67271;59.120;37.970;2023-09-19T05:01:20;100581.84;;;11.94;71.05
77867;BME280;67271;59.120;37.970;2023-09-19T05:03:49;100579.56;;;11.97;70.99
77867;BME280;67271;59.120;37.970;2023-09-19T05:06:18;100573.91;;;12.20;70.42
77867;BME280;67271;59.120;37.970;2023-09-19T05:08:47;100579.66;;;12.32;70.30
77867;BME280;67271;59.120;37.970;2023-09-19T05:11:19;100574.41;;;12.30;70.50
77867;BME280;67271;59.120;37.970;2023-09-19T05:13:47;100580.69;;;12.31;70.50
77867;BME280;67271;59.120;37.970;2023-09-19T05:16:16;100577.53;;;12.55;70.19
77867;BME280;67271;59.120;37.970;2023-09-19T05:18:42;100573.97;;;12.96;69.13
77867;BME280;67271;59.120;37.970;2023-09-19T05:21:08;100567.06;;;13.34;68.29
77867;BME280;67271;59.120;37.970;2023-09-19T05:23:34;100554.81;;;13.71;67.58
77867;BME280;67271;59.120;37.970;2023-09-19T05:26:00;100546.66;;;14.17;66.58
77867;BME280;67271;59.120;37.970;2023-09-19T05:28:26;100545.34;;;14.79;65.34
77867;BME280;67271;59.120;37.970;2023-09-19T05:30:52;100538.38;;;14.83;65.10
77867;BME280;67271;59.120;37.970;2023-09-19T05:33:19;100534.78;;;15.02;64.95
77867;BME280;67271;59.120;37.970;2023-09-19T05:35:45;100538.44;;;15.66;63.71
77867;BME280;67271;59.120;37.970;2023-09-19T05:38:13;100539.94;;;15.62;63.49
77867;BME280;67271;59.120;37.970;2023-09-19T05:40:40;100532.03;;;15.47;63.92
77867;BME280;67271;59.120;37.970;2023-09-19T05:43:10;100533.44;;;15.11;64.36
77867;BME280;67271;59.120;37.970;2023-09-19T05:45:36;100537.84;;;15.13;63.98
77867;BME280;67271;59.120;37.970;2023-09-19T05:48:13;100532.91;;;16.29;60.79
77867;BME280;67271;59.120;37.970;2023-09-19T05:50:42;100528.13;;;16.67;60.05
77867;BME280;67271;59.120;37.970;2023-09-19T05:53:08;100535.16;;;17.11;59.05
77867;BME280;67271;59.120;37.970;2023-09-19T05:55:40;100535.88;;;16.88;59.50
77867;BME280;67271;59.120;37.970;2023-09-19T05:58:08;100536.09;;;17.05;58.82
77867;BME280;67271;59.120;37.970;2023-09-19T06:00:35;100529.00;;;17.46;58.28
77867;BME280;67271;59.120;37.970;2023-09-19T06:03:02;100526.47;;;17.32;58.57
77867;BME280;67271;59.120;37.970;2023-09-19T06:05:28;100518.97;;;17.28;58.52
77867;BME280;67271;59.120;37.970;2023-09-19T06:07:55;100513.94;;;17.55;57.83
77867;BME280;67271;59.120;37.970;2023-09-19T06:10:24;100518.31;;;17.74;57.15
77867;BME280;67271;59.120;37.970;2023-09-19T06:12:50;100512.47;;;17.82;57.01
77867;BME280;67271;59.120;37.970;2023-09-19T06:15:17;100517.06;;;17.58;57.32
77867;BME280;67271;59.120;37.970;2023-09-19T06:17:53;100512.06;;;17.37;57.59
77867;BME280;67271;59.120;37.970;2023-09-19T06:20:24;100519.06;;;17.21;58.10
77867;BME280;67271;59.120;37.970;2023-09-19T06:22:51;100511.59;;;17.28;57.52
77867;BME280;67271;59.120;37.970;2023-09-19T06:25:17;100509.69;;;17.29;57.40
77867;BME280;67271;59.120;37.970;2023-09-19T06:27:52;100511.44;;;17.23;57.10
77867;BME280;67271;59.120;37.970;2023-09-19T06:30:20;100504.13;;;17.06;57.45
77867;BME280;67271;59.120;37.970;2023-09-19T06:32:46;100505.09;;;17.41;56.80
77867;BME280;67271;59.120;37.970;2023-09-19T06:35:13;100508.66;;;17.83;55.84
77867;BME280;67271;59.120;37.970;2023-09-19T06:37:41;100490.50;;;18.00;55.94
77867;BME280;67271;59.120;37.970;2023-09-19T06:40:14;100499.63;;;17.83;56.14
77867;BME280;67271;59.120;37.970;2023-09-19T06:42:45;100494.16;;;17.53;56.84
77867;BME280;67271;59.120;37.970;2023-09-19T06:45:14;100496.91;;;17.23;57.37
77867;BME280;67271;59.120;37.970;2023-09-19T06:47:48;100487.41;;;16.95;57.34
77867;BME280;67271;59.120;37.970;2023-09-19T06:50:21;100495.19;;;17.10;57.21
77867;BME280;67271;59.120;37.970;2023-09-19T06:52:54;100487.97;;;17.46;56.89
77867;BME280;67271;59.120;37.970;2023-09-19T06:55:22;100485.69;;;17.84;55.94
77867;BME280;67271;59.120;37.970;2023-09-19T06:57:54;100479.53;;;18.00;55.70
77867;BME280;67271;59.120;37.970;2023-09-19T07:00:20;100478.59;;;17.95;56.00
77867;BME280;67271;59.120;37.970;2023-09-19T07:03:02;100480.84;;;17.98;55.92
77867;BME280;67271;59.120;37.970;2023-09-19T07:05:30;100468.56;;;18.47;55.26
77867;BME280;67271;59.120;37.970;2023-09-19T07:07:57;100472.88;;;19.06;53.92
77867;BME280;67271;59.120;37.970;2023-09-19T07:10:27;100472.75;;;19.29;54.03
77867;BME280;67271;59.120;37.970;2023-09-19T07:13:00;100477.94;;;19.43;53.47
77867;BME280;67271;59.120;37.970;2023-09-19T07:15:29;100472.88;;;19.06;54.31
77867;BME280;67271;59.120;37.970;2023-09-19T07:17:56;100463.41;;;18.85;54.43
77867;BME280;67271;59.120;37.970;2023-09-19T07:20:23;100463.56;;;18.44;54.67
77867;BME280;67271;59.120;37.970;2023-09-19T07:22:53;100461.22;;;18.24;54.79
77867;BME280;67271;59.120;37.970;2023-09-19T07:25:21;100454.78;;;18.18;55.32
77867;BME280;67271;59.120;37.970;2023-09-19T07:27:48;100440.44;;;18.51;54.87
77867;BME280;67271;59.120;37.970;2023-09-19T07:30:14;100453.09;;;18.29;54.62
77867;BME280;67271;59.120;37.970;2023-09-19T07:32:41;100453.44;;;18.44;54.23
77867;BME280;67271;59.120;37.970;2023-09-19T07:35:08;100457.88;;;18.10;54.40
77867;BME280;67271;59.120;37.970;2023-09-19T07:37:34;100459.28;;;17.66;55.13
77867;BME280;67271;59.120;37.970;2023-09-19T07:40:05;100456.03;;;17.28;55.41
77867;BME280;67271;59.120;37.970;2023-09-19T07:42:36;100456.16;;;17.21;55.58
77867;BME280;67271;59.120;37.970;2023-09-19T07:45:07;100457.94;;;16.97;55.72
77867;BME280;67271;59.120;37.970;2023-09-19T07:47:33;100451.28;;;16.75;55.64
77867;BME280;67271;59.120;37.970;2023-09-19T07:50:02;100449.53;;;16.44;55.69
77867;BME280;67271;59.120;37.970;2023-09-19T07:52:29;100447.72;;;15.95;56.33
77867;BME280;67271;59.120;37.970;2023-09-19T07:54:55;100449.56;;;15.76;56.77
77867;BME280;67271;59.120;37.970;2023-09-19T07:57:23;100448.03;;;15.62;56.75
77867;BME280;67271;59.120;37.970;2023-09-19T07:59:48;100454.78;;;15.53;56.63
77867;BME280;67271;59.120;37.970;2023-09-19T08:02:14;100445.97;;;15.51;57.04
77867;BME280;67271;59.120;37.970;2023-09-19T08:04:44;100449.22;;;15.66;56.81
77867;BME280;67271;59.120;37.970;2023-09-19T08:07:14;100448.91;;;15.81;56.33
77867;BME280;67271;59.120;37.970;2023-09-19T08:09:40;100445.38;;;15.99;56.17
77867;BME280;67271;59.120;37.970;2023-09-19T08:12:07;100449.88;;;15.86;56.21
77867;BME280;67271;59.120;37.970;2023-09-19T08:14:36;100441.59;;;15.75;56.43
77867;BME280;67271;59.120;37.970;2023-09-19T08:17:03;100444.66;;;15.60;56.85
77867;BME280;67271;59.120;37.970;2023-09-19T08:19:31;100432.53;;;15.56;57.34
77867;BME280;67271;59.120;37.970;2023-09-19T08:21:58;100442.78;;;15.85;56.79
77867;BME280;67271;59.120;37.970;2023-09-19T08:24:28;100439.28;;;15.78;56.83
77867;BME280;67271;59.120;37.970;2023-09-19T08:26:55;100438.53;;;15.65;57.33
77867;BME280;67271;59.120;37.970;2023-09-19T08:29:22;100420.84;;;15.42;57.82
77867;BME280;67271;59.120;37.970;2023-09-19T08:32:02;100436.09;;;15.25;58.29
77867;BME280;67271;59.120;37.970;2023-09-19T08:34:27;100436.16;;;15.43;57.86
77867;BME280;67271;59.120;37.970;2023-09-19T08:36:55;100422.00;;;15.60;57.72
77867;BME280;67271;59.120;37.970;2023-09-19T08:39:24;100408.59;;;15.58;57.69
77867;BME280;67271;59.120;37.970;2023-09-19T08:42:01;100413.97;;;15.40;58.20
77867;BME280;67271;59.120;37.970;2023-09-19T08:44:28;100412.19;;;15.21;58.88
77867;BME280;67271;59.120;37.970;2023-09-19T08:47:11;100418.38;;;15.09;58.89
77867;BME280;67271;59.120;37.970;2023-09-19T08:49:54;100406.66;;;15.02;59.06
77867;BME280;67271;59.120;37.970;2023-09-19T08:52:28;100396.81;;;15.01;59.12
77867;BME280;67271;59.120;37.970;2023-09-19T08:55:01;100389.69;;;15.00;59.22
77867;BME280;67271;59.120;37.970;2023-09-19T08:57:33;100389.69;;;15.00;59.49
77867;BME280;67271;59.120;37.970;2023-09-19T09:00:04;100385.91;;;15.01;59.41
77867;BME280;67271;59.120;37.970;2023-09-19T09:02:38;100380.22;;;15.09;59.45
77867;BME280;67271;59.120;37.970;2023-09-19T09:05:11;100378.78;;;15.32;59.08
77867;BME280;67271;59.120;37.970;2023-09-19T09:07:37;100366.97;;;15.38;58.94
77867;BME280;67271;59.120;37.970;2023-09-19T09:10:04;100354.13;;;15.45;58.84
77867;BME280;67271;59.120;37.970;2023-09-19T09:12:30;100351.09;;;15.60;58.52
77867;BME280;67271;59.120;37.970;2023-09-19T09:14:57;100358.59;;;15.64;58.91
77867;BME280;67271;59.120;37.970;2023-09-19T09:17:23;100365.41;;;15.55;58.61
77867;BME280;67271;59.120;37.970;2023-09-19T09:19:53;100358.06;;;15.49;58.90
77867;BME280;67271;59.120;37.970;2023-09-19T09:22:19;100363.00;;;15.34;58.68
77867;BME280;67271;59.120;37.970;2023-09-19T09:24:57;100360.59;;;15.26;59.17
77867;BME280;67271;59.120;37.970;2023-09-19T09:27:32;100357.19;;;15.30;59.11
77867;BME280;67271;59.120;37.970;2023-09-19T09:29:59;100361.44;;;15.20;59.12
77867;BME280;67271;59.120;37.970;2023-09-19T09:32:29;100344.41;;;14.99;59.71
77867;BME280;67271;59.120;37.970;2023-09-19T09:35:00;100337.28;;;14.98;59.75
77867;BME280;67271;59.120;37.970;2023-09-19T09:37:28;100334.31;;;15.06;59.61
77867;BME280;67271;59.120;37.970;2023-09-19T09:39:58;100318.88;;;15.19;59.30
77867;BME280;67271;59.120;37.970;2023-09-19T09:42:38;100338.94;;;15.31;59.35
77867;BME280;67271;59.120;37.970;2023-09-19T09:45:32;100329.78;;;15.43;59.00
77867;BME280;67271;59.120;37.970;2023-09-19T09:47:59;100318.03;;;15.43;59.14
77867;BME280;67271;59.120;37.970;2023-09-19T09:50:31;100348.81;;;15.50;59.22
77867;BME280;67271;59.120;37.970;2023-09-19T09:53:39;100336.38;;;15.36;59.63
77867;BME280;67271;59.120;37.970;2023-09-19T09:56:09;100333.06;;;15.27;60.19
77867;BME280;67271;59.120;37.970;2023-09-19T09:58:49;100335.81;;;15.27;60.36
77867;BME280;67271;59.120;37.970;2023-09-19T10:01:15;100326.91;;;15.38;60.16
77867;BME280;67271;59.120;37.970;2023-09-19T10:03:42;100333.19;;;15.39;60.41
77867;BME280;67271;59.120;37.970;2023-09-19T10:06:16;100326.41;;;15.48;60.08
77867;BME280;67271;59.120;37.970;2023-09-19T10:09:05;100336.09;;;15.44;60.94
77867;BME280;67271;59.120;37.970;2023-09-19T10:11:47;100331.53;;;15.38;61.21
77867;BME280;67271;59.120;37.970;2023-09-19T10:14:29;100323.63;;;15.30;61.43
77867;BME280;67271;59.120;37.970;2023-09-19T10:16:59;100322.41;;;15.26;61.46
77867;BME280;67271;59.120;37.970;2023-09-19T10:22:14;100319.91;;;15.24;61.53
77867;BME280;67271;59.120;37.970;2023-09-19T10:24:49;100312.31;;;15.26;61.59
77867;BME280;67271;59.120;37.970;2023-09-19T10:27:20;100304.97;;;15.27;61.53
77867;BME280;67271;59.120;37.970;2023-09-19T10:29:51;100297.91;;;15.44;61.25
77867;BME280;67271;59.120;37.970;2023-09-19T10:32:22;100288.94;;;15.37;61.16
77867;BME280;67271;59.120;37.970;2023-09-19T10:34:49;100287.53;;;15.09;61.91
77867;BME280;67271;59.120;37.970;2023-09-19T10:37:16;100289.91;;;14.99;61.97
77867;BME280;67271;59.120;37.970;2023-09-19T10:39:46;100266.63;;;15.03;61.95
77867;BME280;67271;59.120;37.970;2023-09-19T10:42:18;100275.06;;;14.95;62.12
77867;BME280;67271;59.120;37.970;2023-09-19T10:44:47;100273.22;;;14.89;62.04
77867;BME280;67271;59.120;37.970;2023-09-19T10:47:20;100283.91;;;14.91;62.27
77867;BME280;67271;59.120;37.970;2023-09-19T10:49:47;100269.38;;;14.97;62.08
77867;BME280;67271;59.120;37.970;2023-09-19T10:52:20;100261.75;;;15.05;61.82
77867;BME280;67271;59.120;37.970;2023-09-19T10:54:52;100278.13;;;15.05;62.05
77867;BME280;67271;59.120;37.970;2023-09-19T10:57:23;100276.13;;;14.94;62.33
77867;BME280;67271;59.120;37.970;2023-09-19T11:05:41;100273.22;;;14.89;62.56
77867;BME280;67271;59.120;37.970;2023-09-19T11:08:08;100279.91;;;14.93;62.51
77867;BME280;67271;59.120;37.970;2023-09-19T11:10:50;100273.56;;;14.99;62.12
77867;BME280;67271;59.120;37.970;2023-09-19T11:13:26;100272.78;;;14.92;62.48
77867;BME280;67271;59.120;37.970;2023-09-19T11:21:51;100264.28;;;15.07;62.02
77867;BME280;67271;59.120;37.970;2023-09-19T11:27:09;100268.91;;;14.75;62.60
77867;BME280;67271;59.120;37.970;2023-09-19T11:29:37;100250.56;;;14.95;62.18
77867;BME280;67271;59.120;37.970;2023-09-19T11:32:05;100244.97;;;15.08;61.96
77867;BME280;67271;59.120;37.970;2023-09-19T11:34:44;100247.34;;;14.98;62.04
77867;BME280;67271;59.120;37.970;2023-09-19T11:40:06;100238.25;;;15.54;61.06
77867;BME280;67271;59.120;37.970;2023-09-19T11:42:46;100222.31;;;16.06;59.97
77867;BME280;67271;59.120;37.970;2023-09-19T11:48:16;100206.56;;;15.71;60.63
77867;BME280;67271;59.120;37.970;2023-09-19T11:50:45;100216.19;;;15.13;61.92
77867;BME280;67271;59.120;37.970;2023-09-19T11:53:13;100215.22;;;14.82;62.63
77867;BME280;67271;59.120;37.970;2023-09-19T11:55:40;100223.25;;;15.02;62.35
77867;BME280;67271;59.120;37.970;2023-09-19T11:58:09;100210.78;;;15.31;61.33
77867;BME280;67271;59.120;37.970;2023-09-19T12:00:37;100202.59;;;15.56;60.61
77867;BME280;67271;59.120;37.970;2023-09-19T12:03:10;100200.66;;;15.93;60.04
77867;BME280;67271;59.120;37.970;2023-09-19T12:05:39;100207.16;;;15.92;60.06
77867;BME280;67271;59.120;37.970;2023-09-19T12:08:07;100202.63;;;15.67;60.48
77867;BME280;67271;59.120;37.970;2023-09-19T12:10:47;100203.59;;;15.36;61.02
77867;BME280;67271;59.120;37.970;2023-09-19T12:13:18;100194.88;;;15.46;60.90
77867;BME280;67271;59.120;37.970;2023-09-19T12:15:44;100189.78;;;15.56;60.37
77867;BME280;67271;59.120;37.970;2023-09-19T12:18:29;100173.06;;;15.46;60.59
77867;BME280;67271;59.120;37.970;2023-09-19T12:20:55;100154.59;;;15.30;60.92
77867;BME280;67271;59.120;37.970;2023-09-19T12:23:24;100176.53;;;15.17;61.14
77867;BME280;67271;59.120;37.970;2023-09-19T12:25:52;100164.69;;;15.04;61.77
77867;BME280;67271;59.120;37.970;2023-09-19T12:28:21;100177.84;;;14.89;62.29
77867;BME280;67271;59.120;37.970;2023-09-19T12:30:49;100163.44;;;14.82;62.09
77867;BME280;67271;59.120;37.970;2023-09-19T12:33:19;100150.84;;;14.88;62.03
77867;BME280;67271;59.120;37.970;2023-09-19T12:35:47;100147.84;;;14.96;61.92
77867;BME280;67271;59.120;37.970;2023-09-19T12:38:28;100133.53;;;15.00;61.83
77867;BME280;67271;59.120;37.970;2023-09-19T12:40:57;100136.16;;;15.07;61.50
77867;BME280;67271;59.120;37.970;2023-09-19T12:43:26;100128.75;;;15.14;61.23
77867;BME280;67271;59.120;37.970;2023-09-19T12:45:53;100127.78;;;15.08;61.41
77867;BME280;67271;59.120;37.970;2023-09-19T12:48:29;100131.34;;;15.09;61.33
77867;BME280;67271;59.120;37.970;2023-09-19T12:51:11;100126.72;;;15.09;61.29
77867;BME280;67271;59.120;37.970;2023-09-19T12:53:39;100115.34;;;15.13;61.56
77867;BME280;67271;59.120;37.970;2023-09-19T12:56:10;100117.63;;;15.16;61.50
77867;BME280;67271;59.120;37.970;2023-09-19T12:58:58;100111.47;;;15.20;61.20
77867;BME280;67271;59.120;37.970;2023-09-19T13:01:27;100115.34;;;15.13;61.45
77867;BME280;67271;59.120;37.970;2023-09-19T13:04:15;100115.41;;;15.06;61.73
77867;BME280;67271;59.120;37.970;2023-09-19T13:06:49;100107.25;;;15.06;61.55
77867;BME280;67271;59.120;37.970;2023-09-19T13:09:23;100099.28;;;15.04;61.49
77867;BME280;67271;59.120;37.970;2023-09-19T13:12:34;100097.41;;;15.05;61.30
77867;BME280;67271;59.120;37.970;2023-09-19T13:15:09;100092.41;;;15.02;61.21
77867;BME280;67271;59.120;37.970;2023-09-19T13:17:46;100107.94;;;15.01;61.46
77867;BME280;67271;59.120;37.970;2023-09-19T13:20:25;100094.13;;;14.96;61.31
77867;BME280;67271;59.120;37.970;2023-09-19T13:22:55;100091.06;;;14.93;61.46
77867;BME280;67271;59.120;37.970;2023-09-19T13:25:26;100089.59;;;14.90;61.23
77867;BME280;67271;59.120;37.970;2023-09-19T13:27:57;100101.56;;;14.89;61.43
77867;BME280;67271;59.120;37.970;2023-09-19T13:30:24;100090.91;;;14.88;61.35
77867;BME280;67271;59.120;37.970;2023-09-19T13:32:52;100076.44;;;14.87;61.56
77867;BME280;67271;59.120;37.970;2023-09-19T13:35:19;100077.94;;;14.83;61.58
77867;BME280;67271;59.120;37.970;2023-09-19T13:37:47;100088.00;;;14.83;61.52